EDSB/FKB METAR and TAF weather

Enter ICAO airport designator
Station Type Date Time Source
EDSB METAR 2018/12/10 19:20 UTC NOAA

EDSB 101920Z 20007KT CAVOK 04/02 Q1024


Station Type Date Time Source
EDSB Decoded METAR 2018/12/10 19:20 UTC NOAA

Karlsruhe, Baden Wurttemberg, Germany (EDSB) 48-46-43N 008-04-47E
Dec 10, 2018 - 02:20 PM EST / 2018.12.10 1920 UTC
Wind: from the SSW (200 degrees) at 8 MPH (7 KT):0
Visibility: greater than 7 mile(s):0
Temperature: 39 F (4 C)
Dew Point: 35 F (2 C)
Relative Humidity: 86%
Pressure (altimeter): 30.24 in. Hg (1024 hPa)
ob: EDSB 101920Z 20007KT CAVOK 04/02 Q1024
cycle: 19

Station Type Date Time Source
EDSB TAF 2018/12/10 18:27 UTC NOAA

TAF EDSB 101700Z 1018/1118 23006KT 9999 SCT030 PROB30
TEMPO 1018/1020 28015G25KT SHRASN BKN020TCU


Example: see airport list